createdAt,value
2018-06-19T00:00:28.410Z,15.57
2018-06-19T00:01:28.401Z,15.54
2018-06-19T00:02:28.400Z,15.54
2018-06-19T00:03:28.400Z,15.54
2018-06-19T00:04:28.394Z,15.49
2018-06-19T00:05:28.388Z,15.51
2018-06-19T00:06:28.383Z,15.51
2018-06-19T00:07:28.381Z,15.49
2018-06-19T00:08:28.407Z,15.52
2018-06-19T00:09:28.394Z,15.48
2018-06-19T00:10:28.373Z,15.48
2018-06-19T00:11:28.358Z,15.54
2018-06-19T00:12:28.358Z,15.54
2018-06-19T00:13:28.360Z,15.42
2018-06-19T00:14:28.352Z,15.39
2018-06-19T00:15:28.349Z,15.39
2018-06-19T00:16:28.352Z,15.39
2018-06-19T00:17:28.346Z,15.41
2018-06-19T00:18:28.340Z,15.42
2018-06-19T00:19:28.336Z,15.35
2018-06-19T00:20:28.335Z,15.36
2018-06-19T00:21:28.326Z,15.41
2018-06-19T00:22:28.323Z,15.43
2018-06-19T00:23:28.324Z,15.41
2018-06-19T00:24:28.318Z,15.51
2018-06-19T00:25:28.333Z,15.46
2018-06-19T00:26:28.307Z,15.48
2018-06-19T00:27:28.303Z,15.42
2018-06-19T00:28:28.299Z,15.49
2018-06-19T00:29:28.308Z,15.48
2018-06-19T00:30:28.290Z,15.45
2018-06-19T00:31:28.288Z,15.48
2018-06-19T00:32:28.301Z,15.45
2018-06-19T00:33:28.277Z,15.45
2018-06-19T00:34:28.269Z,15.56
2018-06-19T00:35:28.298Z,15.46
2018-06-19T00:36:28.264Z,15.45
2018-06-19T00:37:28.262Z,15.46
2018-06-19T00:38:28.266Z,15.41
2018-06-19T00:39:28.257Z,15.52
2018-06-19T00:40:28.261Z,15.48
2018-06-19T00:41:28.246Z,15.45
2018-06-19T00:42:28.245Z,15.36
2018-06-19T00:43:28.241Z,15.33
2018-06-19T00:44:28.227Z,15.28
2018-06-19T00:45:28.235Z,15.39
2018-06-19T00:46:28.231Z,15.33
2018-06-19T00:47:28.225Z,15.30
2018-06-19T00:48:28.218Z,15.27
2018-06-19T00:49:28.259Z,15.30
2018-06-19T00:50:28.212Z,15.30
2018-06-19T00:51:28.213Z,15.19
2018-06-19T00:52:28.200Z,15.15
2018-06-19T00:53:28.195Z,15.06
2018-06-19T00:54:28.197Z,15.08
2018-06-19T00:55:28.193Z,15.09
2018-06-19T00:56:28.231Z,15.11
2018-06-19T00:57:28.183Z,15.09
2018-06-19T00:58:28.181Z,15.02
2018-06-19T00:59:28.181Z,15.03
2018-06-19T01:00:28.171Z,15.09
2018-06-19T01:01:28.389Z,15.11
2018-06-19T01:02:28.223Z,15.11
2018-06-19T01:03:28.166Z,15.09
2018-06-19T01:04:28.156Z,15.09
2018-06-19T01:05:28.153Z,15.08
2018-06-19T01:06:28.147Z,15.09
2018-06-19T01:07:28.137Z,15.06
2018-06-19T01:08:28.172Z,15.09
2018-06-19T01:09:28.138Z,15.03
2018-06-19T01:10:28.130Z,15.05
2018-06-19T01:11:28.162Z,15.05
2018-06-19T01:12:28.126Z,14.99
2018-06-19T01:13:28.121Z,14.99
2018-06-19T01:14:28.112Z,14.98
2018-06-19T01:15:28.112Z,14.91
2018-06-19T01:16:28.105Z,15.01
2018-06-19T01:17:28.099Z,14.93
2018-06-19T01:18:28.099Z,14.95
2018-06-19T01:19:28.101Z,14.94
2018-06-19T01:20:28.089Z,14.87
2018-06-19T01:21:28.086Z,14.88
2018-06-19T01:22:28.092Z,14.86
2018-06-19T01:23:28.093Z,14.90
2018-06-19T01:24:28.072Z,14.87
2018-06-19T01:25:28.063Z,14.90
2018-06-19T01:26:28.085Z,14.88
2018-06-19T01:27:28.063Z,14.83
2018-06-19T01:28:28.057Z,14.91
2018-06-19T01:29:28.053Z,14.87
2018-06-19T01:30:28.049Z,14.87
2018-06-19T02:03:10.919Z,14.90
2018-06-19T02:04:10.881Z,14.93
2018-06-19T02:06:03.834Z,14.93
2018-06-19T02:07:03.810Z,14.94
2018-06-19T02:08:56.985Z,15.02
2018-06-19T02:09:56.947Z,14.91
2018-06-19T02:10:56.939Z,14.99
2018-06-19T02:11:56.942Z,14.99
2018-06-19T02:12:56.926Z,14.93
2018-06-19T02:13:56.922Z,15.02
2018-06-19T02:14:56.915Z,14.95
2018-06-19T02:15:56.912Z,15.01
2018-06-19T02:16:56.904Z,14.98
2018-06-19T02:17:56.900Z,15.03
2018-06-19T02:18:56.895Z,15.08
2018-06-19T02:19:56.887Z,15.05
2018-06-19T02:20:56.896Z,15.09
2018-06-19T02:21:56.883Z,15.11
2018-06-19T02:22:56.898Z,15.08
2018-06-19T02:23:56.870Z,15.11
2018-06-19T02:24:56.872Z,15.19
2018-06-19T02:25:56.862Z,15.27
2018-06-19T02:26:56.856Z,15.13
2018-06-19T02:27:56.853Z,15.13
2018-06-19T02:28:56.850Z,15.15
2018-06-19T02:29:56.871Z,15.11
2018-06-19T02:30:56.849Z,15.24
2018-06-19T02:31:56.839Z,15.31
2018-06-19T02:32:56.834Z,15.28
2018-06-19T02:33:56.833Z,15.27
2018-06-19T02:34:56.826Z,15.17
2018-06-19T02:35:56.823Z,15.13
2018-06-19T02:36:56.823Z,15.09
2018-06-19T02:37:56.820Z,15.05
2018-06-19T02:38:56.813Z,15.05
2018-06-19T02:39:56.798Z,15.08
2018-06-19T02:40:56.809Z,15.05
2018-06-19T02:41:56.799Z,15.05
2018-06-19T02:42:56.793Z,15.17
2018-06-19T02:43:56.782Z,15.06
2018-06-19T02:44:56.791Z,15.08
2018-06-19T02:45:56.785Z,15.03
2018-06-19T02:46:56.778Z,15.12
2018-06-19T02:47:56.777Z,15.11
2018-06-19T02:48:56.770Z,15.06
2018-06-19T02:49:56.764Z,15.02
2018-06-19T02:50:56.771Z,15.01
2018-06-19T02:51:56.762Z,14.93
2018-06-19T02:52:56.774Z,14.95
2018-06-19T02:53:56.755Z,14.88
2018-06-19T02:54:56.743Z,14.86
2018-06-19T02:55:56.747Z,14.90
2018-06-19T02:56:56.744Z,14.84
2018-06-19T02:57:56.738Z,14.93
2018-06-19T02:58:56.725Z,14.83
2018-06-19T02:59:56.730Z,14.86
2018-06-19T03:00:56.730Z,14.88
2018-06-19T03:01:56.727Z,14.86
2018-06-19T03:02:56.715Z,14.83
2018-06-19T03:03:56.717Z,14.81
2018-06-19T03:04:56.754Z,14.75
2018-06-19T03:05:56.704Z,14.72
2018-06-19T03:06:56.710Z,14.69
2018-06-19T03:07:56.700Z,14.81
2018-06-19T03:08:56.696Z,14.69
2018-06-19T03:09:56.689Z,14.68
2018-06-19T03:10:56.686Z,14.56
2018-06-19T03:11:56.686Z,14.53
2018-06-19T03:12:56.670Z,14.56
2018-06-19T03:13:56.669Z,14.46
2018-06-19T03:14:56.673Z,14.39
2018-06-19T03:15:56.672Z,14.34
2018-06-19T03:16:56.668Z,14.29
2018-06-19T03:17:56.658Z,14.29
2018-06-19T03:18:56.662Z,14.21
2018-06-19T03:19:56.648Z,14.32
2018-06-19T03:20:56.645Z,14.24
2018-06-19T03:21:56.646Z,14.28
2018-06-19T03:22:56.638Z,14.27
2018-06-19T03:23:56.638Z,14.21
2018-06-19T03:24:56.633Z,14.24
2018-06-19T03:25:56.641Z,14.25
2018-06-19T03:26:56.627Z,14.27
2018-06-19T03:27:56.620Z,14.17
2018-06-19T03:28:56.615Z,14.20
2018-06-19T03:29:56.618Z,14.21
2018-06-19T03:30:56.605Z,14.32
2018-06-19T03:31:56.609Z,14.38
2018-06-19T03:32:56.597Z,14.37
2018-06-19T03:33:56.600Z,14.49
2018-06-19T03:34:56.589Z,14.43
2018-06-19T03:35:56.586Z,14.52
2018-06-19T03:36:56.580Z,14.60
2018-06-19T03:37:56.584Z,14.56
2018-06-19T03:38:56.567Z,14.64
2018-06-19T03:39:56.574Z,14.69
2018-06-19T03:40:56.557Z,14.64
2018-06-19T03:41:56.560Z,14.80
2018-06-19T03:42:56.561Z,14.74
2018-06-19T03:43:56.558Z,14.84
2018-06-19T03:44:56.548Z,14.93
2018-06-19T03:45:56.547Z,14.94
2018-06-19T03:46:56.548Z,14.99
2018-06-19T03:47:56.538Z,15.02
2018-06-19T03:48:56.543Z,15.06
2018-06-19T03:49:56.528Z,15.06
2018-06-19T03:50:56.529Z,15.06
2018-06-19T03:51:56.542Z,15.20
2018-06-19T03:52:56.522Z,15.21
2018-06-19T03:53:56.532Z,15.26
2018-06-19T03:54:56.512Z,15.31
2018-06-19T03:55:56.548Z,15.28
2018-06-19T03:56:56.524Z,15.26
2018-06-19T03:57:56.494Z,15.36
2018-06-19T03:58:56.503Z,15.43
2018-06-19T03:59:56.487Z,15.36
2018-06-19T04:00:56.491Z,15.41
2018-06-19T04:01:56.491Z,15.46
2018-06-19T04:02:56.487Z,15.43
2018-06-19T04:03:56.630Z,15.41
2018-06-19T04:04:56.475Z,15.46
2018-06-19T04:05:56.472Z,15.51
2018-06-19T04:06:56.468Z,15.43
2018-06-19T04:07:56.635Z,15.42
2018-06-19T04:08:56.453Z,15.45
2018-06-19T04:09:56.601Z,15.45
2018-06-19T04:10:56.462Z,15.54
2018-06-19T04:11:56.478Z,15.49
2018-06-19T04:12:56.488Z,15.49
2018-06-19T04:13:56.490Z,15.59
2018-06-19T04:14:56.500Z,15.63
2018-06-19T04:15:56.459Z,15.61
2018-06-19T04:16:56.501Z,15.74
2018-06-19T04:17:56.520Z,15.75
2018-06-19T04:18:56.565Z,15.57
2018-06-19T04:19:56.523Z,15.67
2018-06-19T04:20:56.424Z,15.64
2018-06-19T04:21:57.353Z,15.79
2018-06-19T04:22:56.415Z,15.78
2018-06-19T04:23:56.428Z,15.89
2018-06-19T04:24:56.418Z,15.92
2018-06-19T04:25:56.411Z,15.89
2018-06-19T04:26:56.420Z,15.89
2018-06-19T04:27:56.480Z,16.00
2018-06-19T04:28:56.588Z,16.01
2018-06-19T04:29:56.493Z,15.96
2018-06-19T04:30:57.323Z,15.92
2018-06-19T04:31:57.275Z,16.01
2018-06-19T04:32:56.428Z,16.11
2018-06-19T04:33:56.467Z,16.14
2018-06-19T04:34:56.455Z,16.15
2018-06-19T04:35:56.413Z,16.15
2018-06-19T04:36:56.437Z,16.14
2018-06-19T04:37:56.376Z,16.25
2018-06-19T04:38:56.458Z,16.25
2018-06-19T04:39:56.357Z,16.33
2018-06-19T04:40:56.461Z,16.37
2018-06-19T04:41:56.511Z,16.35
2018-06-19T04:42:56.357Z,16.38
2018-06-19T04:43:56.450Z,16.37
2018-06-19T04:44:56.424Z,16.42
2018-06-19T04:45:56.455Z,16.41
2018-06-19T04:46:56.381Z,16.50
2018-06-19T04:47:56.342Z,16.41
2018-06-19T04:48:56.410Z,16.48
2018-06-19T04:49:56.345Z,16.53
2018-06-19T04:50:56.423Z,16.60
2018-06-19T04:51:56.503Z,16.55
2018-06-19T04:52:56.336Z,16.70
2018-06-19T04:53:56.365Z,16.75
2018-06-19T04:54:56.353Z,16.68
2018-06-19T04:55:56.327Z,16.74
2018-06-19T04:56:56.331Z,16.78
2018-06-19T04:57:56.336Z,16.89
2018-06-19T04:58:56.372Z,16.89
2018-06-19T04:59:56.311Z,16.98
2018-06-19T05:00:56.354Z,16.80
2018-06-19T05:01:56.306Z,16.90
2018-06-19T05:02:56.404Z,16.88
2018-06-19T05:03:56.407Z,17.04
2018-06-19T05:04:56.424Z,17.08
2018-06-19T05:05:56.315Z,17.08
2018-06-19T05:06:56.289Z,17.11
2018-06-19T05:07:56.340Z,17.10
2018-06-19T05:08:56.380Z,17.07
2018-06-19T05:09:56.374Z,17.07
2018-06-19T05:10:56.285Z,17.06
2018-06-19T05:11:56.305Z,17.10
2018-06-19T05:12:56.393Z,17.15
2018-06-19T05:13:56.268Z,17.10
2018-06-19T05:14:56.302Z,17.29
2018-06-19T05:15:56.252Z,17.41
2018-06-19T05:16:56.257Z,17.47
2018-06-19T05:17:56.258Z,17.51
2018-06-19T05:18:56.256Z,17.53
2018-06-19T05:19:56.273Z,17.48
2018-06-19T05:20:56.256Z,17.51
2018-06-19T05:21:56.249Z,17.54
2018-06-19T05:22:56.252Z,17.63
2018-06-19T05:23:56.267Z,17.78
2018-06-19T05:24:56.256Z,17.79
2018-06-19T05:25:56.244Z,17.87
2018-06-19T05:26:56.243Z,17.92
2018-06-19T05:27:56.247Z,17.92
2018-06-19T05:28:56.256Z,17.99
2018-06-19T05:29:56.235Z,17.87
2018-06-19T05:30:56.237Z,17.88
2018-06-19T05:31:56.234Z,17.85
2018-06-19T05:32:56.232Z,17.99
2018-06-19T05:33:56.255Z,17.94
2018-06-19T05:34:56.235Z,17.91
2018-06-19T05:35:56.221Z,18.00
2018-06-19T05:36:56.243Z,18.12
2018-06-19T05:37:56.221Z,18.18
2018-06-19T05:38:56.220Z,18.34
2018-06-19T05:39:56.220Z,18.31
2018-06-19T05:40:56.220Z,18.19
2018-06-19T05:41:56.227Z,18.25
2018-06-19T05:42:56.211Z,18.29
2018-06-19T05:43:56.214Z,18.24
2018-06-19T05:44:56.211Z,18.24
2018-06-19T05:45:56.207Z,18.37
2018-06-19T05:46:56.210Z,18.39
2018-06-19T05:47:56.208Z,18.25
2018-06-19T05:48:56.205Z,18.33
2018-06-19T05:49:56.203Z,18.28
2018-06-19T05:50:56.200Z,18.42
2018-06-19T05:51:56.232Z,18.42
2018-06-19T05:52:56.200Z,18.52
2018-06-19T05:53:56.190Z,18.62
2018-06-19T05:54:56.195Z,18.83
2018-06-19T05:55:56.196Z,19.05
2018-06-19T05:56:56.195Z,19.20
2018-06-19T05:57:56.197Z,19.29
2018-06-19T05:58:56.206Z,19.35
2018-06-19T05:59:56.190Z,19.35
2018-06-19T06:00:56.195Z,19.31
2018-06-19T06:01:56.194Z,19.28
2018-06-19T06:02:56.191Z,19.17
2018-06-19T06:03:56.186Z,19.23
2018-06-19T06:04:56.189Z,19.28
2018-06-19T06:05:56.308Z,19.33
2018-06-19T06:06:56.218Z,19.24
2018-06-19T06:07:56.199Z,19.17
2018-06-19T06:08:56.181Z,19.15
2018-06-19T06:09:56.190Z,19.24
2018-06-19T06:10:56.180Z,19.38
2018-06-19T06:11:56.185Z,19.46
2018-06-19T06:12:56.189Z,19.38
2018-06-19T06:13:56.182Z,19.35
2018-06-19T06:14:56.198Z,19.54
2018-06-19T06:15:56.189Z,19.48
2018-06-19T06:16:56.205Z,19.35
2018-06-19T06:17:56.188Z,19.50
2018-06-19T06:18:56.289Z,19.53
2018-06-19T06:19:56.199Z,19.58
2018-06-19T06:20:56.194Z,19.80
2018-06-19T06:21:56.189Z,19.93
2018-06-19T06:22:56.189Z,20.03
2018-06-19T06:23:56.189Z,20.35
2018-06-19T06:24:56.182Z,20.71
2018-06-19T06:25:56.188Z,20.79
2018-06-19T06:26:56.196Z,20.81
2018-06-19T06:27:56.193Z,20.95
2018-06-19T06:28:56.188Z,21.45
2018-06-19T06:29:56.200Z,21.61
2018-06-19T06:30:56.197Z,21.91
2018-06-19T06:31:56.203Z,22.49
2018-06-19T06:32:56.214Z,22.57
2018-06-19T06:33:56.221Z,22.71
2018-06-19T06:34:56.224Z,22.47
2018-06-19T06:35:56.211Z,22.59
2018-06-19T06:36:56.239Z,22.23
2018-06-19T06:37:56.213Z,22.27
2018-06-19T06:38:56.217Z,22.46
2018-06-19T06:39:56.220Z,22.22
2018-06-19T06:40:56.233Z,21.83
2018-06-19T06:41:56.241Z,21.56
2018-06-19T06:42:56.230Z,21.88
2018-06-19T06:43:56.235Z,21.95
2018-06-19T06:44:56.240Z,22.16
2018-06-19T06:45:56.238Z,21.97
2018-06-19T06:46:56.246Z,22.04
2018-06-19T06:47:56.247Z,22.27
2018-06-19T06:48:56.245Z,22.50
2018-06-19T06:49:56.249Z,22.60
2018-06-19T06:50:56.255Z,22.31
2018-06-19T06:51:56.275Z,22.44
2018-06-19T06:52:56.264Z,22.47
2018-06-19T06:53:56.280Z,22.54
2018-06-19T06:54:56.272Z,22.87
2018-06-19T06:55:56.266Z,23.08
2018-06-19T06:56:56.269Z,22.46
2018-06-19T06:57:56.273Z,22.69
2018-06-19T06:58:56.274Z,23.27
2018-06-19T06:59:56.278Z,24.12
2018-06-19T07:00:56.288Z,24.56
2018-06-19T07:01:56.283Z,25.15
2018-06-19T07:02:56.302Z,25.30
2018-06-19T07:03:56.285Z,25.54
2018-06-19T07:04:56.289Z,26.24
2018-06-19T07:05:56.290Z,27.01
2018-06-19T07:06:56.297Z,26.96
2018-06-19T07:07:56.299Z,26.43
2018-06-19T07:08:56.308Z,26.79
2018-06-19T07:09:56.344Z,27.48
2018-06-19T07:10:56.416Z,27.88
2018-06-19T07:11:56.428Z,28.29
2018-06-19T07:12:56.341Z,27.80
2018-06-19T07:13:56.344Z,26.89
2018-06-19T07:14:56.349Z,27.04
2018-06-19T07:15:56.415Z,27.14
2018-06-19T07:16:56.367Z,27.24
2018-06-19T07:17:56.375Z,27.35
2018-06-19T07:18:56.429Z,26.87
2018-06-19T07:19:56.425Z,26.49
2018-06-19T07:20:56.409Z,26.58
2018-06-19T07:21:56.412Z,26.62
2018-06-19T07:22:56.422Z,27.19
2018-06-19T07:23:56.434Z,27.50
2018-06-19T07:24:56.450Z,26.46
2018-06-19T07:25:56.526Z,26.72
2018-06-19T07:26:56.481Z,26.59
2018-06-19T07:27:56.482Z,26.04
2018-06-19T07:28:56.582Z,26.44
2018-06-19T07:29:56.505Z,27.21
2018-06-19T07:30:56.523Z,27.35
2018-06-19T07:31:56.541Z,26.95
2018-06-19T07:32:56.552Z,27.39
2018-06-19T07:33:56.556Z,28.26
2018-06-19T07:34:56.565Z,28.66
2018-06-19T07:35:56.581Z,28.84
2018-06-19T07:36:56.602Z,29.70
2018-06-19T07:37:56.732Z,30.49
2018-06-19T07:38:56.622Z,30.31
2018-06-19T07:39:56.640Z,29.78
2018-06-19T07:40:56.648Z,30.18
2018-06-19T07:41:56.669Z,29.60
2018-06-19T07:42:56.673Z,29.16
2018-06-19T07:43:56.698Z,29.35
2018-06-19T07:44:56.706Z,29.81
2018-06-19T07:45:56.734Z,29.45
2018-06-19T07:46:56.735Z,29.49
2018-06-19T07:47:56.747Z,27.85
2018-06-19T07:48:56.763Z,25.91
2018-06-19T07:49:56.774Z,25.82
2018-06-19T07:50:56.793Z,25.47
2018-06-19T07:51:56.808Z,25.16
2018-06-19T07:52:56.833Z,25.54
2018-06-19T07:53:56.835Z,26.69
2018-06-19T07:54:56.853Z,27.94
2018-06-19T07:55:56.869Z,28.29
2018-06-19T07:56:56.880Z,28.59
2018-06-19T07:57:56.908Z,29.11
2018-06-19T07:58:56.915Z,29.52
2018-06-19T07:59:56.944Z,29.71
2018-06-19T08:00:56.944Z,29.82
2018-06-19T08:01:56.955Z,28.69
2018-06-19T08:02:56.976Z,28.44
2018-06-19T08:03:57.125Z,28.69
2018-06-19T08:04:57.004Z,29.11
2018-06-19T08:05:57.026Z,28.54
2018-06-19T08:06:57.042Z,28.11
2018-06-19T08:07:57.054Z,27.17
2018-06-19T08:08:57.067Z,26.89
2018-06-19T08:09:57.082Z,27.13
2018-06-19T08:10:57.101Z,26.36
2018-06-19T08:11:57.233Z,27.98
2018-06-19T08:12:57.137Z,28.01
2018-06-19T08:13:57.149Z,27.99
2018-06-19T08:14:57.159Z,27.58
2018-06-19T08:15:57.195Z,27.10
2018-06-19T08:16:57.238Z,27.19
2018-06-19T08:17:57.212Z,28.17
2018-06-19T08:18:57.225Z,29.50
2018-06-19T08:19:57.249Z,28.81
2018-06-19T08:20:57.264Z,27.74
2018-06-19T08:21:57.280Z,28.46
2018-06-19T08:22:57.322Z,29.82
2018-06-19T08:23:57.321Z,29.55
2018-06-19T08:24:57.331Z,30.74
2018-06-19T08:25:57.354Z,31.09
2018-06-19T08:26:57.357Z,31.20
2018-06-19T08:27:57.390Z,29.56
2018-06-19T08:28:57.403Z,29.19
2018-06-19T08:29:57.421Z,30.16
2018-06-19T08:30:57.435Z,29.93
2018-06-19T08:31:57.474Z,30.21
2018-06-19T08:32:57.477Z,29.81
2018-06-19T08:33:57.490Z,28.03
2018-06-19T08:34:57.504Z,27.17
2018-06-19T08:35:57.517Z,27.88
2018-06-19T08:36:57.545Z,28.97
2018-06-19T08:37:57.566Z,29.34
2018-06-19T08:38:57.576Z,28.38
2018-06-19T08:39:57.590Z,29.31
2018-06-19T08:40:57.625Z,29.62
2018-06-19T08:41:57.622Z,28.59
2018-06-19T08:42:57.649Z,27.73
2018-06-19T08:43:57.660Z,26.89
2018-06-19T08:44:57.671Z,26.21
2018-06-19T08:45:57.678Z,25.97
2018-06-19T08:46:57.696Z,26.21
2018-06-19T08:47:57.743Z,26.74
2018-06-19T08:48:57.727Z,26.69
2018-06-19T08:49:57.738Z,26.17
2018-06-19T08:50:57.754Z,26.54
2018-06-19T08:51:57.767Z,26.32
2018-06-19T08:52:57.782Z,26.40
2018-06-19T08:53:57.785Z,26.42
2018-06-19T08:54:57.798Z,26.37
2018-06-19T08:55:57.826Z,26.59
2018-06-19T08:56:57.830Z,26.89
2018-06-19T08:57:57.829Z,28.21
2018-06-19T08:58:57.841Z,28.66
2018-06-19T08:59:57.881Z,27.42
2018-06-19T09:00:57.865Z,26.44
2018-06-19T09:01:57.877Z,26.57
2018-06-19T09:02:57.887Z,26.87
2018-06-19T09:03:57.900Z,26.39
2018-06-19T09:04:57.909Z,26.73
2018-06-19T09:05:57.920Z,27.66
2018-06-19T09:06:57.943Z,30.16
2018-06-19T09:07:57.940Z,30.80
2018-06-19T09:08:58.009Z,31.08
2018-06-19T09:09:57.963Z,31.61
2018-06-19T09:10:57.975Z,30.64
2018-06-19T09:11:57.997Z,31.05
2018-06-19T09:12:58.004Z,30.75
2018-06-19T09:13:58.017Z,30.57
2018-06-19T09:14:58.051Z,30.12
2018-06-19T09:15:58.055Z,29.72
2018-06-19T09:16:58.264Z,28.65
2018-06-19T09:17:58.072Z,27.48
2018-06-19T09:18:58.106Z,27.33
2018-06-19T09:19:58.111Z,25.75
2018-06-19T09:20:58.132Z,25.46
2018-06-19T09:21:58.136Z,25.82
2018-06-19T09:22:58.150Z,27.61
2018-06-19T09:23:58.184Z,28.75
2018-06-19T09:24:58.178Z,29.62
2018-06-19T09:25:58.245Z,29.53
2018-06-19T09:26:58.201Z,29.96
2018-06-19T09:27:58.218Z,29.33
2018-06-19T09:28:58.234Z,29.26
2018-06-19T09:29:58.248Z,28.56
2018-06-19T09:30:58.263Z,28.62
2018-06-19T09:31:58.276Z,28.85
2018-06-19T09:32:58.291Z,29.23
2018-06-19T09:33:58.303Z,29.50
2018-06-19T09:34:58.318Z,29.52
2018-06-19T09:35:58.332Z,29.53
2018-06-19T09:36:58.368Z,28.93
2018-06-19T09:37:58.352Z,28.44
2018-06-19T09:38:58.367Z,28.46
2018-06-19T09:39:58.376Z,27.46
2018-06-19T09:40:58.381Z,27.46
2018-06-19T09:41:58.422Z,27.70
2018-06-19T09:42:58.419Z,28.17
2018-06-19T09:43:58.450Z,28.14
2018-06-19T09:44:58.442Z,28.19
2018-06-19T09:45:58.473Z,28.32
2018-06-19T09:46:58.528Z,28.70
2018-06-19T09:47:58.492Z,28.80
2018-06-19T09:48:58.481Z,28.36
2018-06-19T09:49:58.492Z,28.14
2018-06-19T09:50:58.503Z,27.29
2018-06-19T09:51:58.524Z,26.27
2018-06-19T09:52:58.528Z,26.43
2018-06-19T09:53:58.580Z,25.42
2018-06-19T09:54:58.538Z,26.01
2018-06-19T09:55:58.571Z,26.76
2018-06-19T09:56:58.563Z,27.74
2018-06-19T09:57:58.592Z,28.09
2018-06-19T09:58:58.723Z,28.46
2018-06-19T09:59:58.596Z,28.10
2018-06-19T10:00:58.608Z,29.55
2018-06-19T10:01:58.657Z,30.93
2018-06-19T10:02:58.629Z,31.24
2018-06-19T10:03:58.645Z,31.18
2018-06-19T10:04:58.649Z,30.72
2018-06-19T10:05:58.670Z,31.26
2018-06-19T10:06:58.690Z,31.06
2018-06-19T10:07:58.755Z,30.67
2018-06-19T10:08:58.713Z,31.57
2018-06-19T10:09:58.726Z,32.06
2018-06-19T10:10:58.743Z,31.76
2018-06-19T10:11:58.780Z,31.01
2018-06-19T10:12:58.777Z,29.89
2018-06-19T10:13:58.795Z,30.56
2018-06-19T10:14:58.811Z,30.74
2018-06-19T10:15:58.829Z,31.48
2018-06-19T10:16:58.857Z,32.22
2018-06-19T10:17:58.852Z,32.62
2018-06-19T10:18:58.875Z,31.67
2018-06-19T10:19:58.909Z,31.27
2018-06-19T10:20:58.916Z,32.07
2018-06-19T10:21:58.931Z,31.23
2018-06-19T10:22:58.968Z,30.99
2018-06-19T10:23:59.008Z,30.05
2018-06-19T10:24:59.002Z,30.99
2018-06-19T10:25:59.005Z,32.17
2018-06-19T10:26:59.036Z,33.01
2018-06-19T10:27:59.051Z,33.71
2018-06-19T10:28:59.064Z,33.45
2018-06-19T10:29:59.074Z,33.11
2018-06-19T10:30:59.107Z,32.66
2018-06-19T10:31:59.125Z,30.50
2018-06-19T10:32:59.163Z,30.05
2018-06-19T10:33:59.264Z,29.86
2018-06-19T10:34:59.243Z,29.11
2018-06-19T10:35:59.197Z,27.91
2018-06-19T10:36:59.228Z,27.84
2018-06-19T10:37:59.242Z,27.88
2018-06-19T10:38:59.261Z,27.89
2018-06-19T10:39:59.275Z,27.98
2018-06-19T10:40:59.296Z,28.53
2018-06-19T10:41:59.315Z,29.11
2018-06-19T10:42:59.328Z,28.53
2018-06-19T10:43:59.408Z,28.04
2018-06-19T10:44:59.359Z,27.29
2018-06-19T10:45:59.417Z,27.33
2018-06-19T10:46:59.408Z,27.39
2018-06-19T10:47:59.411Z,27.23
2018-06-19T10:48:59.414Z,27.31
2018-06-19T10:49:59.423Z,27.46
2018-06-19T10:50:59.436Z,26.69
2018-06-19T10:51:59.474Z,26.77
2018-06-19T10:52:59.461Z,26.87
2018-06-19T10:53:59.471Z,27.33
2018-06-19T10:54:59.485Z,29.19
2018-06-19T10:55:59.494Z,30.38
2018-06-19T10:56:59.502Z,30.96
2018-06-19T10:57:59.519Z,31.27
2018-06-19T10:58:59.550Z,30.78
2018-06-19T10:59:59.536Z,30.29
2018-06-19T11:00:59.546Z,29.66
2018-06-19T11:01:59.558Z,28.65
2018-06-19T11:02:59.576Z,28.73
2018-06-19T11:03:59.573Z,28.56
2018-06-19T11:04:59.613Z,28.78
2018-06-19T11:05:59.610Z,28.81
2018-06-19T11:06:59.622Z,29.20
2018-06-19T11:07:59.624Z,28.72
2018-06-19T11:08:59.641Z,27.89
2018-06-19T11:09:59.649Z,27.88
2018-06-19T11:10:59.653Z,27.47
2018-06-19T11:11:59.669Z,27.94
2018-06-19T11:12:59.675Z,28.66
2018-06-19T11:13:59.728Z,29.11
2018-06-19T11:14:59.703Z,29.25
2018-06-19T11:15:59.707Z,29.29
2018-06-19T11:16:59.717Z,29.70
2018-06-19T11:17:59.732Z,29.94
2018-06-19T11:18:59.748Z,30.46
2018-06-19T11:19:59.766Z,30.61
2018-06-19T11:20:59.773Z,30.18
2018-06-19T11:21:59.778Z,29.86
2018-06-19T11:22:59.792Z,29.66
2018-06-19T11:23:59.861Z,29.72
2018-06-19T11:24:59.815Z,29.96
2018-06-19T11:25:59.839Z,30.23
2018-06-19T11:26:59.848Z,31.27
2018-06-19T11:27:59.878Z,31.46
2018-06-19T11:28:59.901Z,32.00
2018-06-19T11:30:00.082Z,32.77
2018-06-19T11:30:59.936Z,31.95
2018-06-19T11:31:59.952Z,31.88
2018-06-19T11:32:59.999Z,31.75
2018-06-19T11:33:59.965Z,31.24
2018-06-19T11:34:59.993Z,31.24
2018-06-19T11:36:00.010Z,31.21
2018-06-19T11:37:00.035Z,31.21
2018-06-19T11:38:00.058Z,31.20
2018-06-19T11:39:00.070Z,31.93
2018-06-19T11:40:00.113Z,31.36
2018-06-19T11:41:00.108Z,31.67
2018-06-19T11:42:00.124Z,31.30
2018-06-19T11:43:00.149Z,31.11
2018-06-19T11:44:00.164Z,30.50
2018-06-19T11:45:00.185Z,31.24
2018-06-19T11:46:00.200Z,31.18
2018-06-19T11:47:00.225Z,31.26
2018-06-19T11:48:00.244Z,29.89
2018-06-19T11:49:00.268Z,29.03
2018-06-19T11:50:00.273Z,28.46
2018-06-19T11:51:00.303Z,28.35
2018-06-19T11:52:00.323Z,28.10
2018-06-19T11:53:00.336Z,27.46
2018-06-19T11:54:00.371Z,26.76
2018-06-19T11:55:00.382Z,27.54
2018-06-19T11:56:00.381Z,28.96
2018-06-19T11:57:00.393Z,30.12
2018-06-19T11:58:00.426Z,31.05
2018-06-19T11:59:00.420Z,30.94
2018-06-19T12:00:00.434Z,31.17
2018-06-19T12:01:00.456Z,31.95
2018-06-19T12:02:00.475Z,32.27
2018-06-19T12:03:00.497Z,31.62
2018-06-19T12:04:00.507Z,31.13
2018-06-19T12:05:00.518Z,31.15
2018-06-19T12:06:00.524Z,30.96
2018-06-19T12:07:00.558Z,31.17
2018-06-19T12:08:00.564Z,31.04
2018-06-19T12:09:00.581Z,30.68
2018-06-19T12:10:00.589Z,31.05
2018-06-19T12:11:00.640Z,31.20
2018-06-19T12:12:00.618Z,30.99
2018-06-19T12:13:00.631Z,30.67
2018-06-19T12:14:00.646Z,30.50
2018-06-19T12:15:00.657Z,30.09
2018-06-19T12:16:00.674Z,29.19
2018-06-19T12:17:00.678Z,28.28
2018-06-19T12:18:00.703Z,27.91
2018-06-19T12:19:00.701Z,27.09
2018-06-19T12:20:00.721Z,26.80
2018-06-19T12:21:00.720Z,26.40
2018-06-19T12:22:00.758Z,26.44
2018-06-19T12:23:00.738Z,27.09
2018-06-19T12:24:00.804Z,28.26
2018-06-19T12:25:00.764Z,28.93
2018-06-19T12:26:00.768Z,29.68
2018-06-19T12:27:00.774Z,29.99
2018-06-19T12:28:00.786Z,30.59
2018-06-19T12:29:00.797Z,30.49
2018-06-19T12:30:00.818Z,31.02
2018-06-19T12:31:00.818Z,31.13
2018-06-19T12:32:00.833Z,30.54
2018-06-19T12:33:00.840Z,29.94
2018-06-19T12:34:00.850Z,29.10
2018-06-19T12:35:00.869Z,28.72
2018-06-19T12:36:00.890Z,28.11
2018-06-19T12:37:00.894Z,27.29
2018-06-19T12:38:00.909Z,27.21
2018-06-19T12:39:00.922Z,27.33
2018-06-19T12:40:00.939Z,27.20
2018-06-19T12:41:00.963Z,27.19
2018-06-19T12:42:01.142Z,27.38
2018-06-19T12:43:01.057Z,27.71
2018-06-19T12:44:00.985Z,27.82
2018-06-19T12:45:00.998Z,27.91
2018-06-19T12:46:01.012Z,27.86
2018-06-19T12:47:01.020Z,27.95
2018-06-19T12:48:01.030Z,27.92
2018-06-19T12:49:01.037Z,27.77
2018-06-19T12:50:01.051Z,28.03
2018-06-19T12:51:01.056Z,27.80
2018-06-19T12:52:01.068Z,27.98
2018-06-19T12:53:01.077Z,27.76
2018-06-19T12:54:01.118Z,27.82
2018-06-19T12:55:01.091Z,27.88
2018-06-19T12:56:01.104Z,27.91
2018-06-19T12:57:01.106Z,27.92
2018-06-19T12:58:01.139Z,28.13
2018-06-19T12:59:01.126Z,27.85
2018-06-19T13:00:01.127Z,27.32
2018-06-19T13:01:01.143Z,27.05
2018-06-19T13:02:01.175Z,26.49
2018-06-19T13:03:01.170Z,26.64
2018-06-19T13:04:01.157Z,26.55
2018-06-19T13:05:01.173Z,26.28
2018-06-19T13:06:01.182Z,26.62
2018-06-19T13:07:01.183Z,26.96
2018-06-19T13:08:01.195Z,27.50
2018-06-19T13:09:01.239Z,27.85
2018-06-19T13:10:01.238Z,28.16
2018-06-19T13:11:01.359Z,28.50
2018-06-19T13:12:01.223Z,28.46
2018-06-19T13:13:01.229Z,27.84
2018-06-19T13:14:01.234Z,27.51
2018-06-19T13:15:01.236Z,27.09
2018-06-19T13:16:01.249Z,26.73
2018-06-19T13:17:01.253Z,26.61
2018-06-19T13:18:01.260Z,26.21
2018-06-19T13:19:01.265Z,25.90
2018-06-19T13:20:01.266Z,25.89
2018-06-19T13:21:01.277Z,25.49
2018-06-19T13:22:01.291Z,25.57
2018-06-19T13:23:01.286Z,25.72
2018-06-19T13:24:01.296Z,25.82
2018-06-19T13:25:01.301Z,25.80
2018-06-19T13:26:01.309Z,25.75